sensor_id;sensor_type;location;lat;lon;timestamp;temperature;humidity
21891;DHT22;11110;52.386;16.940;2022-12-28T00:00:33;16.00;85.60
21891;DHT22;11110;52.386;16.940;2022-12-28T00:05:52;16.10;85.60
21891;DHT22;11110;52.386;16.940;2022-12-28T00:08:21;14.20;65.40
21891;DHT22;11110;52.386;16.940;2022-12-28T00:16:07;16.30;77.70
21891;DHT22;11110;52.386;16.940;2022-12-28T00:18:38;15.90;86.10
21891;DHT22;11110;52.386;16.940;2022-12-28T00:23:35;15.90;88.50
21891;DHT22;11110;52.386;16.940;2022-12-28T00:26:05;16.00;87.10
21891;DHT22;11110;52.386;16.940;2022-12-28T00:36:06;15.90;71.60
21891;DHT22;11110;52.386;16.940;2022-12-28T00:41:06;15.90;86.70
21891;DHT22;11110;52.386;16.940;2022-12-28T00:53:34;15.90;71.40
21891;DHT22;11110;52.386;16.940;2022-12-28T00:56:06;15.90;66.90
21891;DHT22;11110;52.386;16.940;2022-12-28T00:58:36;15.90;86.70
21891;DHT22;11110;52.386;16.940;2022-12-28T01:01:09;16.00;69.40
21891;DHT22;11110;52.386;16.940;2022-12-28T01:03:39;15.70;67.50
21891;DHT22;11110;52.386;16.940;2022-12-28T01:06:09;16.00;73.50
21891;DHT22;11110;52.386;16.940;2022-12-28T01:08:40;15.90;69.80
21891;DHT22;11110;52.386;16.940;2022-12-28T01:11:13;16.00;70.70
21891;DHT22;11110;52.386;16.940;2022-12-28T01:16:12;15.80;85.10
21891;DHT22;11110;52.386;16.940;2022-12-28T01:18:42;16.30;69.10
21891;DHT22;11110;52.386;16.940;2022-12-28T01:21:12;15.80;85.90
21891;DHT22;11110;52.386;16.940;2022-12-28T01:23:44;15.10;69.50
21891;DHT22;11110;52.386;16.940;2022-12-28T01:28:42;16.00;87.30
21891;DHT22;11110;52.386;16.940;2022-12-28T01:31:13;15.90;84.20
21891;DHT22;11110;52.386;16.940;2022-12-28T01:36:13;15.80;70.40
21891;DHT22;11110;52.386;16.940;2022-12-28T01:38:45;15.90;68.00
21891;DHT22;11110;52.386;16.940;2022-12-28T01:41:14;15.80;86.80
21891;DHT22;11110;52.386;16.940;2022-12-28T01:43:45;15.90;82.50
21891;DHT22;11110;52.386;16.940;2022-12-28T01:46:16;15.90;68.60
21891;DHT22;11110;52.386;16.940;2022-12-28T01:48:51;15.80;86.20
21891;DHT22;11110;52.386;16.940;2022-12-28T01:51:23;15.90;86.00
21891;DHT22;11110;52.386;16.940;2022-12-28T01:53:55;15.90;84.30
21891;DHT22;11110;52.386;16.940;2022-12-28T01:58:55;15.70;75.80
21891;DHT22;11110;52.386;16.940;2022-12-28T02:01:25;15.90;85.80
21891;DHT22;11110;52.386;16.940;2022-12-28T02:03:55;15.90;86.50
21891;DHT22;11110;52.386;16.940;2022-12-28T02:06:24;15.70;85.60
21891;DHT22;11110;52.386;16.940;2022-12-28T02:08:59;16.10;69.10
21891;DHT22;11110;52.386;16.940;2022-12-28T02:11:29;15.90;86.20
21891;DHT22;11110;52.386;16.940;2022-12-28T02:13:59;15.80;85.30
21891;DHT22;11110;52.386;16.940;2022-12-28T02:24:30;16.00;72.80
21891;DHT22;11110;52.386;16.940;2022-12-28T02:30:05;15.80;68.30
21891;DHT22;11110;52.386;16.940;2022-12-28T02:32:54;15.80;71.30
21891;DHT22;11110;52.386;16.940;2022-12-28T02:35:32;15.80;69.60
21891;DHT22;11110;52.386;16.940;2022-12-28T02:38:06;16.50;68.80
21891;DHT22;11110;52.386;16.940;2022-12-28T02:40:40;15.90;69.30
21891;DHT22;11110;52.386;16.940;2022-12-28T02:43:11;15.80;68.80
21891;DHT22;11110;52.386;16.940;2022-12-28T02:45:43;15.90;86.80
21891;DHT22;11110;52.386;16.940;2022-12-28T02:48:38;15.90;70.40
21891;DHT22;11110;52.386;16.940;2022-12-28T02:54:29;15.70;69.50
21891;DHT22;11110;52.386;16.940;2022-12-28T02:57:34;15.70;70.60
21891;DHT22;11110;52.386;16.940;2022-12-28T03:00:09;15.70;86.40
21891;DHT22;11110;52.386;16.940;2022-12-28T03:02:52;15.80;85.00
21891;DHT22;11110;52.386;16.940;2022-12-28T03:08:16;15.60;70.30
21891;DHT22;11110;52.386;16.940;2022-12-28T03:10:54;15.70;85.10
21891;DHT22;11110;52.386;16.940;2022-12-28T03:24:30;15.60;86.10
21891;DHT22;11110;52.386;16.940;2022-12-28T03:27:20;15.50;69.10
21891;DHT22;11110;52.386;16.940;2022-12-28T03:30:12;15.50;68.80
21891;DHT22;11110;52.386;16.940;2022-12-28T03:32:58;15.50;86.20
21891;DHT22;11110;52.386;16.940;2022-12-28T03:35:36;15.50;72.70
21891;DHT22;11110;52.386;16.940;2022-12-28T03:40:46;15.40;71.60
21891;DHT22;11110;52.386;16.940;2022-12-28T03:43:19;15.40;70.00
21891;DHT22;11110;52.386;16.940;2022-12-28T03:48:44;15.30;86.80
21891;DHT22;11110;52.386;16.940;2022-12-28T03:51:19;15.30;88.60
21891;DHT22;11110;52.386;16.940;2022-12-28T04:03:56;15.20;67.80
21891;DHT22;11110;52.386;16.940;2022-12-28T04:06:27;15.40;70.70
21891;DHT22;11110;52.386;16.940;2022-12-28T04:08:56;15.40;78.90
21891;DHT22;11110;52.386;16.940;2022-12-28T04:11:28;15.40;87.10
21891;DHT22;11110;52.386;16.940;2022-12-28T04:21:38;15.50;69.30
21891;DHT22;11110;52.386;16.940;2022-12-28T04:29:05;15.60;87.20
21891;DHT22;11110;52.386;16.940;2022-12-28T04:39:23;15.60;86.90
21891;DHT22;11110;52.386;16.940;2022-12-28T04:46:50;15.60;86.00
21891;DHT22;11110;52.386;16.940;2022-12-28T04:49:18;15.60;86.50
21891;DHT22;11110;52.386;16.940;2022-12-28T04:51:47;15.60;69.00
21891;DHT22;11110;52.386;16.940;2022-12-28T04:54:17;15.60;71.20
21891;DHT22;11110;52.386;16.940;2022-12-28T05:01:44;15.60;86.90
21891;DHT22;11110;52.386;16.940;2022-12-28T05:11:41;15.80;69.30
21891;DHT22;11110;52.386;16.940;2022-12-28T05:19:07;15.80;86.10
21891;DHT22;11110;52.386;16.940;2022-12-28T05:24:05;15.70;69.60
21891;DHT22;11110;52.386;16.940;2022-12-28T05:36:32;15.70;77.60
21891;DHT22;11110;52.386;16.940;2022-12-28T05:44:02;15.70;67.70
21891;DHT22;11110;52.386;16.940;2022-12-28T05:46:33;15.70;76.50
21891;DHT22;11110;52.386;16.940;2022-12-28T05:49:02;15.80;85.30
21891;DHT22;11110;52.386;16.940;2022-12-28T05:51:32;16.10;68.90
21891;DHT22;11110;52.386;16.940;2022-12-28T05:54:01;15.80;86.80
21891;DHT22;11110;52.386;16.940;2022-12-28T05:56:32;15.80;86.70
21891;DHT22;11110;52.386;16.940;2022-12-28T05:59:02;15.80;73.60
21891;DHT22;11110;52.386;16.940;2022-12-28T06:01:34;15.80;69.90
21891;DHT22;11110;52.386;16.940;2022-12-28T06:04:05;15.90;70.20
21891;DHT22;11110;52.386;16.940;2022-12-28T06:06:34;16.00;69.80
21891;DHT22;11110;52.386;16.940;2022-12-28T06:14:02;16.00;68.60
21891;DHT22;11110;52.386;16.940;2022-12-28T06:19:06;16.20;70.60
21891;DHT22;11110;52.386;16.940;2022-12-28T06:21:38;15.90;86.80
21891;DHT22;11110;52.386;16.940;2022-12-28T06:26:38;15.90;69.20
21891;DHT22;11110;52.386;16.940;2022-12-28T06:31:39;15.80;70.40
21891;DHT22;11110;52.386;16.940;2022-12-28T06:36:39;15.80;85.50
21891;DHT22;11110;52.386;16.940;2022-12-28T06:39:10;16.00;85.20
21891;DHT22;11110;52.386;16.940;2022-12-28T06:41:39;15.90;68.00
21891;DHT22;11110;52.386;16.940;2022-12-28T06:46:39;15.90;72.10
21891;DHT22;11110;52.386;16.940;2022-12-28T06:54:09;15.90;86.00
21891;DHT22;11110;52.386;16.940;2022-12-28T06:56:38;15.90;86.30
21891;DHT22;11110;52.386;16.940;2022-12-28T07:06:39;15.90;69.50
21891;DHT22;11110;52.386;16.940;2022-12-28T07:09:11;15.80;69.10
21891;DHT22;11110;52.386;16.940;2022-12-28T07:16:38;15.80;86.50
21891;DHT22;11110;52.386;16.940;2022-12-28T07:21:38;15.90;69.90
21891;DHT22;11110;52.386;16.940;2022-12-28T07:26:36;15.90;70.00
21891;DHT22;11110;52.386;16.940;2022-12-28T07:29:06;15.90;70.20
21891;DHT22;11110;52.386;16.940;2022-12-28T07:31:37;15.90;71.40
21891;DHT22;11110;52.386;16.940;2022-12-28T07:41:41;16.00;86.30
21891;DHT22;11110;52.386;16.940;2022-12-28T07:44:10;16.00;69.00
21891;DHT22;11110;52.386;16.940;2022-12-28T07:46:39;16.30;86.30
21891;DHT22;11110;52.386;16.940;2022-12-28T07:49:07;16.10;86.10
21891;DHT22;11110;52.386;16.940;2022-12-28T07:51:38;16.00;69.20
21891;DHT22;11110;52.386;16.940;2022-12-28T08:01:35;16.10;76.00
21891;DHT22;11110;52.386;16.940;2022-12-28T08:09:06;15.80;83.20
21891;DHT22;11110;52.386;16.940;2022-12-28T08:14:06;16.20;68.90
21891;DHT22;11110;52.386;16.940;2022-12-28T08:16:37;16.20;65.40
21891;DHT22;11110;52.386;16.940;2022-12-28T08:19:07;16.30;67.60
21891;DHT22;11110;52.386;16.940;2022-12-28T08:21:38;16.30;81.90
21891;DHT22;11110;52.386;16.940;2022-12-28T08:24:12;16.10;66.20
21891;DHT22;11110;52.386;16.940;2022-12-28T08:26:42;16.20;78.90
21891;DHT22;11110;52.386;16.940;2022-12-28T08:29:14;16.30;66.30
21891;DHT22;11110;52.386;16.940;2022-12-28T08:31:44;16.40;66.90
21891;DHT22;11110;52.386;16.940;2022-12-28T08:34:15;16.30;83.80
21891;DHT22;11110;52.386;16.940;2022-12-28T08:49:11;16.40;80.70
21891;DHT22;11110;52.386;16.940;2022-12-28T08:51:40;16.80;67.10
21891;DHT22;11110;52.386;16.940;2022-12-28T08:54:11;16.40;67.50
21891;DHT22;11110;52.386;16.940;2022-12-28T09:04:14;16.70;66.90
21891;DHT22;11110;52.386;16.940;2022-12-28T09:06:43;16.70;83.80
21891;DHT22;11110;52.386;16.940;2022-12-28T09:09:13;16.60;66.90
21891;DHT22;11110;52.386;16.940;2022-12-28T09:11:44;16.70;83.60
21891;DHT22;11110;52.386;16.940;2022-12-28T09:14:14;16.70;64.70
21891;DHT22;11110;52.386;16.940;2022-12-28T09:16:51;16.70;69.40
21891;DHT22;11110;52.386;16.940;2022-12-28T09:19:20;16.70;43.60
21891;DHT22;11110;52.386;16.940;2022-12-28T09:21:49;17.10;43.60
21891;DHT22;11110;52.386;16.940;2022-12-28T09:24:19;17.50;43.10
21891;DHT22;11110;52.386;16.940;2022-12-28T09:26:50;17.80;42.50
21891;DHT22;11110;52.386;16.940;2022-12-28T09:29:19;18.10;42.00
21891;DHT22;11110;52.386;16.940;2022-12-28T09:31:47;18.20;41.60
21891;DHT22;11110;52.386;16.940;2022-12-28T09:34:16;18.40;41.30
21891;DHT22;11110;52.386;16.940;2022-12-28T09:37:04;18.50;41.00
21891;DHT22;11110;52.386;16.940;2022-12-28T09:39:33;18.70;40.80
21891;DHT22;11110;52.386;16.940;2022-12-28T09:42:07;18.60;40.50
21891;DHT22;11110;52.386;16.940;2022-12-28T09:44:47;18.80;40.70
21891;DHT22;11110;52.386;16.940;2022-12-28T09:47:23;18.80;40.70
21891;DHT22;11110;52.386;16.940;2022-12-28T09:50:02;18.80;40.70
21891;DHT22;11110;52.386;16.940;2022-12-28T09:52:35;18.90;40.50
21891;DHT22;11110;52.386;16.940;2022-12-28T09:55:12;19.00;40.40
21891;DHT22;11110;52.386;16.940;2022-12-28T09:57:45;19.00;40.40
21891;DHT22;11110;52.386;16.940;2022-12-28T10:00:17;19.10;40.00
21891;DHT22;11110;52.386;16.940;2022-12-28T10:02:50;19.10;40.00
21891;DHT22;11110;52.386;16.940;2022-12-28T10:05:20;19.20;39.80
21891;DHT22;11110;52.386;16.940;2022-12-28T10:07:50;19.20;39.70
21891;DHT22;11110;52.386;16.940;2022-12-28T10:10:26;19.30;39.60
21891;DHT22;11110;52.386;16.940;2022-12-28T10:12:58;19.30;39.60
21891;DHT22;11110;52.386;16.940;2022-12-28T10:15:31;19.30;39.60
21891;DHT22;11110;52.386;16.940;2022-12-28T10:18:00;19.20;39.60
21891;DHT22;11110;52.386;16.940;2022-12-28T10:20:30;19.30;39.60
21891;DHT22;11110;52.386;16.940;2022-12-28T10:22:59;19.30;39.50
21891;DHT22;11110;52.386;16.940;2022-12-28T10:25:29;19.30;39.50
21891;DHT22;11110;52.386;16.940;2022-12-28T10:27:59;19.40;39.60
21891;DHT22;11110;52.386;16.940;2022-12-28T10:30:28;19.40;39.50
21891;DHT22;11110;52.386;16.940;2022-12-28T10:32:58;19.50;39.40
21891;DHT22;11110;52.386;16.940;2022-12-28T10:35:32;19.50;39.30
21891;DHT22;11110;52.386;16.940;2022-12-28T10:38:03;19.60;39.30
21891;DHT22;11110;52.386;16.940;2022-12-28T10:40:35;19.60;39.40
21891;DHT22;11110;52.386;16.940;2022-12-28T10:43:17;19.60;39.30
21891;DHT22;11110;52.386;16.940;2022-12-28T10:45:48;19.60;39.30
21891;DHT22;11110;52.386;16.940;2022-12-28T10:48:21;19.70;39.20
21891;DHT22;11110;52.386;16.940;2022-12-28T10:50:53;19.70;39.20
21891;DHT22;11110;52.386;16.940;2022-12-28T10:53:26;19.70;39.20
21891;DHT22;11110;52.386;16.940;2022-12-28T10:56:03;19.70;39.20
21891;DHT22;11110;52.386;16.940;2022-12-28T10:58:34;19.80;39.20
21891;DHT22;11110;52.386;16.940;2022-12-28T11:01:16;19.80;39.00
21891;DHT22;11110;52.386;16.940;2022-12-28T11:03:58;19.80;39.10
21891;DHT22;11110;52.386;16.940;2022-12-28T11:06:28;19.80;39.10
21891;DHT22;11110;52.386;16.940;2022-12-28T11:09:05;19.80;39.10
21891;DHT22;11110;52.386;16.940;2022-12-28T11:11:34;19.80;39.10
21891;DHT22;11110;52.386;16.940;2022-12-28T11:14:11;19.80;39.20
21891;DHT22;11110;52.386;16.940;2022-12-28T11:16:41;19.80;39.20
21891;DHT22;11110;52.386;16.940;2022-12-28T11:19:11;19.90;39.20
21891;DHT22;11110;52.386;16.940;2022-12-28T11:21:41;19.90;39.20
21891;DHT22;11110;52.386;16.940;2022-12-28T11:24:12;19.90;39.00
21891;DHT22;11110;52.386;16.940;2022-12-28T11:26:43;20.00;39.10
21891;DHT22;11110;52.386;16.940;2022-12-28T11:29:15;20.00;39.20
21891;DHT22;11110;52.386;16.940;2022-12-28T11:31:47;20.00;39.20
21891;DHT22;11110;52.386;16.940;2022-12-28T11:34:21;20.00;39.20
21891;DHT22;11110;52.386;16.940;2022-12-28T11:36:51;20.00;39.20
21891;DHT22;11110;52.386;16.940;2022-12-28T11:39:31;20.10;39.30
21891;DHT22;11110;52.386;16.940;2022-12-28T11:42:01;20.10;39.20
21891;DHT22;11110;52.386;16.940;2022-12-28T11:44:52;20.20;39.20
21891;DHT22;11110;52.386;16.940;2022-12-28T11:47:26;20.20;39.20
21891;DHT22;11110;52.386;16.940;2022-12-28T11:53:22;20.30;39.10
21891;DHT22;11110;52.386;16.940;2022-12-28T11:56:12;20.30;39.00
21891;DHT22;11110;52.386;16.940;2022-12-28T11:58:46;20.40;39.00
21891;DHT22;11110;52.386;16.940;2022-12-28T12:01:48;20.40;39.00
21891;DHT22;11110;52.386;16.940;2022-12-28T12:07:25;20.30;39.00
21891;DHT22;11110;52.386;16.940;2022-12-28T12:10:29;20.40;38.90
21891;DHT22;11110;52.386;16.940;2022-12-28T12:15:45;20.50;39.00
21891;DHT22;11110;52.386;16.940;2022-12-28T12:18:19;20.40;38.90
21891;DHT22;11110;52.386;16.940;2022-12-28T12:20:52;20.50;38.80
21891;DHT22;11110;52.386;16.940;2022-12-28T12:26:25;20.50;38.80
21891;DHT22;11110;52.386;16.940;2022-12-28T12:28:58;20.60;38.80
21891;DHT22;11110;52.386;16.940;2022-12-28T12:31:29;20.60;38.80
21891;DHT22;11110;52.386;16.940;2022-12-28T12:34:07;20.70;38.70
21891;DHT22;11110;52.386;16.940;2022-12-28T12:37:18;20.70;38.80
21891;DHT22;11110;52.386;16.940;2022-12-28T12:42:53;20.80;38.80
21891;DHT22;11110;52.386;16.940;2022-12-28T12:45:33;20.80;38.80
21891;DHT22;11110;52.386;16.940;2022-12-28T12:51:19;20.70;38.60
21891;DHT22;11110;52.386;16.940;2022-12-28T12:54:11;20.70;38.60
21891;DHT22;11110;52.386;16.940;2022-12-28T12:56:48;20.70;38.70
21891;DHT22;11110;52.386;16.940;2022-12-28T12:59:44;20.70;38.70
21891;DHT22;11110;52.386;16.940;2022-12-28T13:02:28;20.80;38.70
21891;DHT22;11110;52.386;16.940;2022-12-28T13:05:05;20.80;38.70
21891;DHT22;11110;52.386;16.940;2022-12-28T13:07:38;20.80;38.70
21891;DHT22;11110;52.386;16.940;2022-12-28T13:10:13;20.90;38.60
21891;DHT22;11110;52.386;16.940;2022-12-28T13:12:44;20.90;38.60
21891;DHT22;11110;52.386;16.940;2022-12-28T13:15:15;20.90;38.60
21891;DHT22;11110;52.386;16.940;2022-12-28T13:17:58;20.90;38.50
21891;DHT22;11110;52.386;16.940;2022-12-28T13:20:55;20.90;38.60
21891;DHT22;11110;52.386;16.940;2022-12-28T13:23:26;20.80;38.60
21891;DHT22;11110;52.386;16.940;2022-12-28T13:25:57;20.90;38.70
21891;DHT22;11110;52.386;16.940;2022-12-28T13:28:28;20.90;38.70
21891;DHT22;11110;52.386;16.940;2022-12-28T13:31:02;20.90;38.70
21891;DHT22;11110;52.386;16.940;2022-12-28T13:33:32;21.00;38.70
21891;DHT22;11110;52.386;16.940;2022-12-28T13:36:19;21.00;38.70
21891;DHT22;11110;52.386;16.940;2022-12-28T13:39:07;21.00;38.70
21891;DHT22;11110;52.386;16.940;2022-12-28T13:41:44;21.00;38.80
21891;DHT22;11110;52.386;16.940;2022-12-28T13:44:41;21.00;38.80
21891;DHT22;11110;52.386;16.940;2022-12-28T13:47:18;20.90;38.80
21891;DHT22;11110;52.386;16.940;2022-12-28T13:49:54;21.00;38.80
21891;DHT22;11110;52.386;16.940;2022-12-28T13:52:27;21.10;38.80
21891;DHT22;11110;52.386;16.940;2022-12-28T13:55:02;21.00;38.90
21891;DHT22;11110;52.386;16.940;2022-12-28T13:57:33;21.00;39.70
21891;DHT22;11110;52.386;16.940;2022-12-28T14:00:22;21.00;39.30
21891;DHT22;11110;52.386;16.940;2022-12-28T14:02:53;21.00;39.30
21891;DHT22;11110;52.386;16.940;2022-12-28T14:05:33;21.00;39.40
21891;DHT22;11110;52.386;16.940;2022-12-28T14:08:04;21.10;39.50
21891;DHT22;11110;52.386;16.940;2022-12-28T14:10:33;21.10;39.60
21891;DHT22;11110;52.386;16.940;2022-12-28T14:13:03;21.10;39.70
21891;DHT22;11110;52.386;16.940;2022-12-28T14:15:33;21.20;39.80
21891;DHT22;11110;52.386;16.940;2022-12-28T14:18:09;21.10;39.70
21891;DHT22;11110;52.386;16.940;2022-12-28T14:20:49;21.20;39.70
21891;DHT22;11110;52.386;16.940;2022-12-28T14:23:21;21.20;39.80
21891;DHT22;11110;52.386;16.940;2022-12-28T14:25:50;21.20;39.80
21891;DHT22;11110;52.386;16.940;2022-12-28T14:28:24;21.30;39.80
21891;DHT22;11110;52.386;16.940;2022-12-28T14:30:54;21.30;39.70
21891;DHT22;11110;52.386;16.940;2022-12-28T14:33:27;21.30;39.70
21891;DHT22;11110;52.386;16.940;2022-12-28T14:35:59;21.30;39.70
21891;DHT22;11110;52.386;16.940;2022-12-28T14:38:32;21.40;39.70
21891;DHT22;11110;52.386;16.940;2022-12-28T14:41:02;21.30;39.70
21891;DHT22;11110;52.386;16.940;2022-12-28T14:43:33;21.40;39.60
21891;DHT22;11110;52.386;16.940;2022-12-28T14:46:15;21.40;39.60
21891;DHT22;11110;52.386;16.940;2022-12-28T14:48:44;21.30;39.60
21891;DHT22;11110;52.386;16.940;2022-12-28T14:51:26;21.40;39.70
21891;DHT22;11110;52.386;16.940;2022-12-28T14:54:15;21.40;39.60
21891;DHT22;11110;52.386;16.940;2022-12-28T14:56:48;21.50;39.60
21891;DHT22;11110;52.386;16.940;2022-12-28T14:59:21;21.40;39.60
21891;DHT22;11110;52.386;16.940;2022-12-28T15:01:53;21.40;39.60
21891;DHT22;11110;52.386;16.940;2022-12-28T15:04:34;21.50;39.60
21891;DHT22;11110;52.386;16.940;2022-12-28T15:07:06;21.50;39.50
21891;DHT22;11110;52.386;16.940;2022-12-28T15:09:35;21.50;39.50
21891;DHT22;11110;52.386;16.940;2022-12-28T15:12:12;21.60;39.50
21891;DHT22;11110;52.386;16.940;2022-12-28T15:14:41;21.60;39.50
21891;DHT22;11110;52.386;16.940;2022-12-28T15:17:10;21.50;39.50
21891;DHT22;11110;52.386;16.940;2022-12-28T15:19:40;21.50;39.60
21891;DHT22;11110;52.386;16.940;2022-12-28T15:22:10;21.60;39.60
21891;DHT22;11110;52.386;16.940;2022-12-28T15:24:39;21.50;39.50
21891;DHT22;11110;52.386;16.940;2022-12-28T15:27:11;21.50;39.70
21891;DHT22;11110;52.386;16.940;2022-12-28T15:29:40;21.50;39.80
21891;DHT22;11110;52.386;16.940;2022-12-28T15:32:29;21.50;39.90
21891;DHT22;11110;52.386;16.940;2022-12-28T15:34:57;21.50;39.90
21891;DHT22;11110;52.386;16.940;2022-12-28T15:37:27;21.60;39.90
21891;DHT22;11110;52.386;16.940;2022-12-28T15:39:56;21.60;40.10
21891;DHT22;11110;52.386;16.940;2022-12-28T15:42:25;21.50;40.20
21891;DHT22;11110;52.386;16.940;2022-12-28T15:44:54;21.50;40.40
21891;DHT22;11110;52.386;16.940;2022-12-28T15:47:22;21.50;40.50
21891;DHT22;11110;52.386;16.940;2022-12-28T15:49:51;21.60;40.60
21891;DHT22;11110;52.386;16.940;2022-12-28T15:52:20;21.50;40.70
21891;DHT22;11110;52.386;16.940;2022-12-28T15:54:50;21.50;40.80
21891;DHT22;11110;52.386;16.940;2022-12-28T15:57:18;21.50;40.80
21891;DHT22;11110;52.386;16.940;2022-12-28T15:59:47;21.50;41.00
21891;DHT22;11110;52.386;16.940;2022-12-28T16:02:16;21.40;41.10
21891;DHT22;11110;52.386;16.940;2022-12-28T16:04:46;21.40;41.20
21891;DHT22;11110;52.386;16.940;2022-12-28T16:07:14;21.50;41.30
21891;DHT22;11110;52.386;16.940;2022-12-28T16:09:45;21.50;41.20
21891;DHT22;11110;52.386;16.940;2022-12-28T16:12:15;21.50;41.20
21891;DHT22;11110;52.386;16.940;2022-12-28T16:14:45;21.50;41.10
21891;DHT22;11110;52.386;16.940;2022-12-28T16:17:14;21.40;41.00
21891;DHT22;11110;52.386;16.940;2022-12-28T16:19:42;21.50;40.90
21891;DHT22;11110;52.386;16.940;2022-12-28T16:22:11;21.60;40.90
21891;DHT22;11110;52.386;16.940;2022-12-28T16:24:40;21.50;40.80
21891;DHT22;11110;52.386;16.940;2022-12-28T16:27:09;21.60;40.80
21891;DHT22;11110;52.386;16.940;2022-12-28T16:29:39;21.50;40.70
21891;DHT22;11110;52.386;16.940;2022-12-28T16:32:08;21.60;40.60
21891;DHT22;11110;52.386;16.940;2022-12-28T16:34:37;21.50;40.60
21891;DHT22;11110;52.386;16.940;2022-12-28T16:37:05;21.50;40.60
21891;DHT22;11110;52.386;16.940;2022-12-28T16:39:36;21.70;40.40
21891;DHT22;11110;52.386;16.940;2022-12-28T16:42:05;21.50;40.40
21891;DHT22;11110;52.386;16.940;2022-12-28T16:44:34;21.50;40.50
21891;DHT22;11110;52.386;16.940;2022-12-28T16:47:05;21.50;40.20
21891;DHT22;11110;52.386;16.940;2022-12-28T16:49:38;21.40;40.30
21891;DHT22;11110;52.386;16.940;2022-12-28T16:52:07;21.40;40.40
21891;DHT22;11110;52.386;16.940;2022-12-28T16:54:36;21.50;40.40
21891;DHT22;11110;52.386;16.940;2022-12-28T16:57:04;21.50;40.50
21891;DHT22;11110;52.386;16.940;2022-12-28T16:59:33;21.40;40.40
21891;DHT22;11110;52.386;16.940;2022-12-28T17:02:03;21.50;40.30
21891;DHT22;11110;52.386;16.940;2022-12-28T17:04:32;21.50;40.20
21891;DHT22;11110;52.386;16.940;2022-12-28T17:07:01;21.40;40.20
21891;DHT22;11110;52.386;16.940;2022-12-28T17:09:30;21.50;40.40
21891;DHT22;11110;52.386;16.940;2022-12-28T17:11:59;21.50;40.40
21891;DHT22;11110;52.386;16.940;2022-12-28T17:14:28;21.50;40.30
21891;DHT22;11110;52.386;16.940;2022-12-28T17:17:06;21.50;40.30
21891;DHT22;11110;52.386;16.940;2022-12-28T17:19:35;21.50;40.40
21891;DHT22;11110;52.386;16.940;2022-12-28T17:22:04;21.40;40.40
21891;DHT22;11110;52.386;16.940;2022-12-28T17:24:33;21.50;40.40
21891;DHT22;11110;52.386;16.940;2022-12-28T17:27:02;21.50;40.30
21891;DHT22;11110;52.386;16.940;2022-12-28T17:29:37;21.50;40.30
21891;DHT22;11110;52.386;16.940;2022-12-28T17:32:07;21.40;40.40
21891;DHT22;11110;52.386;16.940;2022-12-28T17:34:37;21.40;40.50
21891;DHT22;11110;52.386;16.940;2022-12-28T17:37:05;21.50;40.50
21891;DHT22;11110;52.386;16.940;2022-12-28T17:39:34;21.40;40.50
21891;DHT22;11110;52.386;16.940;2022-12-28T17:42:07;21.60;40.60
21891;DHT22;11110;52.386;16.940;2022-12-28T17:44:36;21.40;40.40
21891;DHT22;11110;52.386;16.940;2022-12-28T17:47:04;21.40;40.60
21891;DHT22;11110;52.386;16.940;2022-12-28T17:49:35;21.50;40.60
21891;DHT22;11110;52.386;16.940;2022-12-28T17:52:06;21.30;40.50
21891;DHT22;11110;52.386;16.940;2022-12-28T17:54:35;21.30;40.60
21891;DHT22;11110;52.386;16.940;2022-12-28T17:57:04;21.30;40.50
21891;DHT22;11110;52.386;16.940;2022-12-28T17:59:33;21.30;40.60
21891;DHT22;11110;52.386;16.940;2022-12-28T18:02:02;21.30;40.60
21891;DHT22;11110;52.386;16.940;2022-12-28T18:04:31;21.40;40.50
21891;DHT22;11110;52.386;16.940;2022-12-28T18:07:02;21.40;40.40
21891;DHT22;11110;52.386;16.940;2022-12-28T18:09:31;21.40;40.40
21891;DHT22;11110;52.386;16.940;2022-12-28T18:12:00;21.30;40.60
21891;DHT22;11110;52.386;16.940;2022-12-28T18:14:29;21.30;40.70
21891;DHT22;11110;52.386;16.940;2022-12-28T18:16:57;21.30;40.70
21891;DHT22;11110;52.386;16.940;2022-12-28T18:19:26;21.30;40.70
21891;DHT22;11110;52.386;16.940;2022-12-28T18:21:55;21.30;40.80
21891;DHT22;11110;52.386;16.940;2022-12-28T18:24:25;21.30;40.80
21891;DHT22;11110;52.386;16.940;2022-12-28T18:26:55;21.30;40.70
21891;DHT22;11110;52.386;16.940;2022-12-28T18:29:23;21.30;40.60
21891;DHT22;11110;52.386;16.940;2022-12-28T18:31:52;21.30;40.60
21891;DHT22;11110;52.386;16.940;2022-12-28T18:34:21;21.30;40.60
21891;DHT22;11110;52.386;16.940;2022-12-28T18:36:50;21.30;40.40
21891;DHT22;11110;52.386;16.940;2022-12-28T18:39:19;21.40;40.30
21891;DHT22;11110;52.386;16.940;2022-12-28T18:41:49;21.30;40.30
21891;DHT22;11110;52.386;16.940;2022-12-28T18:44:18;21.30;40.80
21891;DHT22;11110;52.386;16.940;2022-12-28T18:46:46;21.40;40.10
21891;DHT22;11110;52.386;16.940;2022-12-28T18:49:15;21.40;40.00
21891;DHT22;11110;52.386;16.940;2022-12-28T18:51:44;21.40;40.00
21891;DHT22;11110;52.386;16.940;2022-12-28T18:54:13;21.40;40.00
21891;DHT22;11110;52.386;16.940;2022-12-28T18:56:44;21.40;39.90
21891;DHT22;11110;52.386;16.940;2022-12-28T18:59:17;21.40;39.90
21891;DHT22;11110;52.386;16.940;2022-12-28T19:02:12;21.40;39.80
21891;DHT22;11110;52.386;16.940;2022-12-28T19:04:57;21.40;39.90
21891;DHT22;11110;52.386;16.940;2022-12-28T19:07:31;21.50;39.90
21891;DHT22;11110;52.386;16.940;2022-12-28T19:10:01;21.50;39.80
21891;DHT22;11110;52.386;16.940;2022-12-28T19:12:40;21.50;39.70
21891;DHT22;11110;52.386;16.940;2022-12-28T19:15:11;21.60;39.70
21891;DHT22;11110;52.386;16.940;2022-12-28T19:17:40;21.60;39.70
21891;DHT22;11110;52.386;16.940;2022-12-28T19:20:09;21.70;39.70
21891;DHT22;11110;52.386;16.940;2022-12-28T19:22:38;21.70;39.60
21891;DHT22;11110;52.386;16.940;2022-12-28T19:25:07;21.70;39.50
21891;DHT22;11110;52.386;16.940;2022-12-28T19:27:36;21.70;39.60
21891;DHT22;11110;52.386;16.940;2022-12-28T19:30:06;21.70;39.50
21891;DHT22;11110;52.386;16.940;2022-12-28T19:32:36;21.70;39.60
21891;DHT22;11110;52.386;16.940;2022-12-28T19:35:05;21.70;39.50
21891;DHT22;11110;52.386;16.940;2022-12-28T19:37:34;21.70;39.50
21891;DHT22;11110;52.386;16.940;2022-12-28T19:40:04;21.80;39.60
21891;DHT22;11110;52.386;16.940;2022-12-28T19:42:33;21.80;39.60
21891;DHT22;11110;52.386;16.940;2022-12-28T19:45:03;21.80;39.60
21891;DHT22;11110;52.386;16.940;2022-12-28T19:47:39;21.70;39.50
21891;DHT22;11110;52.386;16.940;2022-12-28T19:50:09;21.70;39.60
21891;DHT22;11110;52.386;16.940;2022-12-28T19:52:39;21.70;39.60